Portada
METAR-TAF:

METAR-TAF

Aeroports :

Aeroport Internacional Maiquetía Simón Bolívar

Caracas, Veneçuela

latitud: 10-36N, longitud: 066-59W, altitud: 43 m

Observació

L'informe es va fer fa 2 hores i 54 minuts, a les 04:02 UTC
Vent 7 kt del Est
Temperatura
Pressió 1014 hPa

METAR: SVMI 260402Z AUTO 10007KT NCD ///// Q1014

Hora: 02:56 (06:56 UTC)

Pronòstic

L'informe es va fer fa 2 hores i 56 minuts, a les 04:00 UTC
Pronòstic vàlid del 26 a les 06 UTC al 27 a les 06 UTC
Vent 5 kt del Est
Visibilitat 10 km o més
Núvols disperses a una alçada de 1600 ft
Evolucionant progressivament
l' 26 a les 06 UTC al 26 a les 10 UTC
Vent 4 kt del Est/Nord-Est
Visibilitat 10 km o més
Cel ennuvolat a una alçada de 1600 ft

TAF: SVMI 260400Z 2606/2706 09005KT 9999 SCT016 TX32/2618Z TN25/2607Z BECMG 2606/2610 07004KT 9999 BKN016

Observacions i pronòstics meteorològics de més de 4000 aeroports (METAR i TAF).

Les estacions disponibles són els punts grocs i vermells al mapa.

Posi el ratolí al punt desitjat per veure el nom de l'estació.

Feu clic per veure les observacions i els pronòstics meteorològics.

Per canviar el mapa: feu clic els botons verds amb una creu de color negre per apropar; al botó verd amb un guió per allunyar la imatge; o en les fletxes verdes per a mapes adjacents.


METAR-TAF: